DLH09KL DAAG-EDDM
Flight info
| Callsign | DLH09KL |
|---|---|
| Flight time | N/A |
| Altitude | 38000 |
| Route | OTARO1C OTARO DCT RISEP DCT KIFMI DCT OLNUL DCT TINOT DCT ODIXU DCT MAXIR DCT LUSOL DCT BODRU DCT OKTET DCT IRMAR DCT KINES DCT VANAS DCT MOBLO DCT UBIMA DCT SOSAL DCT KORED DCT BERSU N871 DITON/N0487F390 DCT NUNRI T103 BETOS BETOS1B |
| Aircraft | B77W/H-SDE1E2E3FGHIJ2J3J4J5M1RWXY/LB1D1 |
Departure
| Time | 2026-05-07 19:45 |
|---|---|
| Airport | Houari Boumediene Airport (DAAG) |
Arrival
| Time | N/A |
|---|---|
| Airport | Munich Airport (EDDM) |
| Time | Latitude | Longitude | Altitude | Speed | Heading |
|---|---|---|---|---|---|
| 2026-05-07 19:27 | 36.69457 | 3.19492 | 75 ft | 0 kts | 360° |
| 2026-05-07 19:27 | 36.69452 | 3.19492 | 75 ft | 0 kts | 178° |
| 2026-05-07 19:27 | 36.69461 | 3.19492 | 75 ft | 0 kts | 182° |
| 2026-05-07 19:36 | 36.69458 | 3.19492 | 75 ft | 1 kts | 182° |
| 2026-05-07 19:36 | 36.69453 | 3.19492 | 75 ft | 0 kts | 182° |
| 2026-05-07 19:39 | 36.69426 | 3.19534 | 69 ft | 8 kts | 97° |
| 2026-05-07 19:39 | 36.69395 | 3.19616 | 64 ft | 18 kts | 140° |
| 2026-05-07 19:39 | 36.69313 | 3.19730 | 73 ft | 19 kts | 98° |
| 2026-05-07 19:40 | 36.69306 | 3.19895 | 67 ft | 19 kts | 92° |
| 2026-05-07 19:40 | 36.69302 | 3.20061 | 75 ft | 19 kts | 91° |
| 2026-05-07 19:40 | 36.69301 | 3.20169 | 75 ft | 19 kts | 91° |
| 2026-05-07 19:40 | 36.69295 | 3.20414 | 69 ft | 28 kts | 92° |
| 2026-05-07 19:41 | 36.69289 | 3.20658 | 69 ft | 28 kts | 91° |
| 2026-05-07 19:41 | 36.69283 | 3.20903 | 69 ft | 28 kts | 91° |
| 2026-05-07 19:41 | 36.69279 | 3.21132 | 68 ft | 23 kts | 91° |
| 2026-05-07 19:41 | 36.69304 | 3.21323 | 66 ft | 23 kts | 59° |
| 2026-05-07 19:42 | 36.69381 | 3.21493 | 71 ft | 23 kts | 81° |
| 2026-05-07 19:42 | 36.69381 | 3.21691 | 68 ft | 23 kts | 91° |
| 2026-05-07 19:42 | 36.69380 | 3.21850 | 69 ft | 0 kts | 90° |
| 2026-05-07 19:43 | 36.69383 | 3.21985 | 85 ft | 19 kts | 84° |
| 2026-05-07 19:43 | 36.69419 | 3.22071 | 86 ft | 0 kts | 53° |
| 2026-05-07 19:44 | 36.69477 | 3.22168 | 88 ft | 59 kts | 53° |
| 2026-05-07 19:45 | 36.69999 | 3.23023 | 90 ft | 187 kts | 53° |
| 2026-05-07 19:45 | 36.70880 | 3.24455 | 1450 ft | 189 kts | 50° |
| 2026-05-07 19:45 | 36.71777 | 3.25758 | 2718 ft | 204 kts | 39° |
| 2026-05-07 19:45 | 36.73113 | 3.26496 | 3013 ft | 225 kts | 1° |
| 2026-05-07 19:46 | 36.74738 | 3.26224 | 3389 ft | 244 kts | 345° |
| 2026-05-07 19:46 | 36.76409 | 3.25772 | 4124 ft | 255 kts | 345° |
| 2026-05-07 19:46 | 36.78211 | 3.25637 | 4807 ft | 269 kts | 8° |
| 2026-05-07 19:46 | 36.80040 | 3.26302 | 5575 ft | 278 kts | 15° |
| 2026-05-07 19:47 | 36.81885 | 3.27051 | 6541 ft | 281 kts | 15° |
| 2026-05-07 19:47 | 36.83763 | 3.27808 | 7444 ft | 286 kts | 15° |
| 2026-05-07 19:47 | 36.85673 | 3.28576 | 8310 ft | 291 kts | 14° |
| 2026-05-07 19:47 | 36.87618 | 3.29356 | 9230 ft | 295 kts | 14° |
| 2026-05-07 19:48 | 36.89587 | 3.30144 | 10114 ft | 300 kts | 14° |
| 2026-05-07 19:48 | 36.91597 | 3.30944 | 10647 ft | 318 kts | 14° |
| 2026-05-07 19:48 | 36.93807 | 3.31818 | 10884 ft | 349 kts | 14° |
| 2026-05-07 19:48 | 36.96222 | 3.32775 | 11122 ft | 378 kts | 14° |
| 2026-05-07 19:49 | 36.98784 | 3.33796 | 11825 ft | 393 kts | 15° |
| 2026-05-07 19:49 | 37.01415 | 3.34850 | 12784 ft | 402 kts | 14° |
| 2026-05-07 19:49 | 37.04106 | 3.35928 | 13803 ft | 410 kts | 14° |
| 2026-05-07 19:49 | 37.06841 | 3.37022 | 14749 ft | 416 kts | 14° |
| 2026-05-07 19:50 | 37.09618 | 3.38133 | 15724 ft | 422 kts | 13° |
| 2026-05-07 19:50 | 37.12401 | 3.39246 | 16662 ft | 429 kts | 13° |
| 2026-05-07 19:50 | 37.15262 | 3.40389 | 17608 ft | 435 kts | 13° |
| 2026-05-07 19:50 | 37.18153 | 3.41607 | 18477 ft | 443 kts | 17° |
| 2026-05-07 19:51 | 37.20976 | 3.43276 | 19250 ft | 453 kts | 23° |
| 2026-05-07 19:51 | 37.23739 | 3.45231 | 20088 ft | 459 kts | 25° |
| 2026-05-07 19:51 | 37.26508 | 3.47291 | 20927 ft | 465 kts | 25° |
| 2026-05-07 19:51 | 37.29308 | 3.49364 | 21696 ft | 470 kts | 25° |
| 2026-05-07 19:52 | 37.32162 | 3.51427 | 22447 ft | 476 kts | 24° |
| 2026-05-07 19:52 | 37.35062 | 3.53471 | 23225 ft | 481 kts | 23° |
| 2026-05-07 19:52 | 37.38015 | 3.55513 | 23890 ft | 486 kts | 23° |
| 2026-05-07 19:52 | 37.40955 | 3.57522 | 24539 ft | 490 kts | 23° |
| 2026-05-07 19:53 | 37.43957 | 3.59564 | 25232 ft | 492 kts | 22° |
| 2026-05-07 19:53 | 37.46982 | 3.61619 | 25872 ft | 496 kts | 22° |
| 2026-05-07 19:53 | 37.50034 | 3.63693 | 26478 ft | 500 kts | 22° |
| 2026-05-07 19:53 | 37.53108 | 3.65786 | 27051 ft | 505 kts | 23° |
| 2026-05-07 19:54 | 37.56210 | 3.67903 | 27611 ft | 509 kts | 23° |
| 2026-05-07 19:54 | 37.59337 | 3.70040 | 28168 ft | 513 kts | 23° |
| 2026-05-07 19:54 | 37.62483 | 3.72195 | 28721 ft | 516 kts | 23° |
| 2026-05-07 19:54 | 37.65650 | 3.74367 | 29203 ft | 520 kts | 23° |
| 2026-05-07 19:55 | 37.68796 | 3.76526 | 29645 ft | 524 kts | 23° |
| 2026-05-07 19:55 | 37.72004 | 3.78730 | 30082 ft | 526 kts | 23° |
| 2026-05-07 19:55 | 37.75218 | 3.80942 | 30566 ft | 526 kts | 24° |
| 2026-05-07 19:55 | 37.78430 | 3.83156 | 31107 ft | 524 kts | 24° |
| 2026-05-07 19:56 | 37.81628 | 3.85363 | 31650 ft | 523 kts | 24° |
| 2026-05-07 19:56 | 37.84815 | 3.87562 | 32141 ft | 522 kts | 24° |
| 2026-05-07 19:56 | 37.88007 | 3.89766 | 32631 ft | 522 kts | 24° |
| 2026-05-07 19:56 | 37.91193 | 3.91967 | 33109 ft | 521 kts | 24° |
| 2026-05-07 19:57 | 37.94334 | 3.94139 | 33567 ft | 521 kts | 24° |
| 2026-05-07 19:57 | 37.97508 | 3.96336 | 34018 ft | 521 kts | 24° |
| 2026-05-07 19:57 | 38.00691 | 3.98541 | 34390 ft | 521 kts | 24° |
| 2026-05-07 19:57 | 38.03872 | 4.00747 | 34741 ft | 521 kts | 24° |
| 2026-05-07 19:58 | 38.07054 | 4.02956 | 35069 ft | 522 kts | 25° |
| 2026-05-07 19:58 | 38.10244 | 4.05173 | 35420 ft | 523 kts | 25° |
| 2026-05-07 19:58 | 38.13430 | 4.07390 | 35774 ft | 523 kts | 25° |
| 2026-05-07 19:58 | 38.16617 | 4.09609 | 36101 ft | 523 kts | 25° |
| 2026-05-07 19:59 | 38.19814 | 4.11838 | 36424 ft | 524 kts | 25° |
| 2026-05-07 19:59 | 38.22964 | 4.14036 | 36740 ft | 524 kts | 25° |
| 2026-05-07 19:59 | 38.26159 | 4.16269 | 37057 ft | 524 kts | 25° |
| 2026-05-07 19:59 | 38.29361 | 4.18508 | 37395 ft | 525 kts | 25° |
| 2026-05-07 20:00 | 38.32557 | 4.20745 | 37679 ft | 526 kts | 25° |
| 2026-05-07 20:00 | 38.35769 | 4.22995 | 37870 ft | 528 kts | 25° |
| 2026-05-07 20:00 | 38.42247 | 4.27539 | 37935 ft | 533 kts | 25° |
| 2026-05-07 20:01 | 38.48661 | 4.32054 | 37927 ft | 527 kts | 25° |
| 2026-05-07 20:01 | 38.55059 | 4.36565 | 37935 ft | 526 kts | 25° |
| 2026-05-07 20:02 | 38.61496 | 4.41106 | 37949 ft | 532 kts | 25° |
| 2026-05-07 20:02 | 38.67980 | 4.45693 | 37946 ft | 534 kts | 25° |
| 2026-05-07 20:03 | 38.74497 | 4.50315 | 37945 ft | 535 kts | 25° |
| 2026-05-07 20:03 | 38.80969 | 4.54916 | 37932 ft | 535 kts | 26° |
| 2026-05-07 20:04 | 38.87457 | 4.59537 | 37942 ft | 533 kts | 26° |
| 2026-05-07 20:04 | 38.93934 | 4.64160 | 37944 ft | 532 kts | 26° |
| 2026-05-07 20:05 | 39.00417 | 4.68714 | 37941 ft | 529 kts | 22° |
| 2026-05-07 20:05 | 39.07144 | 4.72268 | 37954 ft | 525 kts | 17° |
| 2026-05-07 20:06 | 39.13974 | 4.75591 | 37949 ft | 525 kts | 17° |
| 2026-05-07 20:06 | 39.20795 | 4.78974 | 37951 ft | 525 kts | 17° |
| 2026-05-07 20:07 | 39.27604 | 4.82420 | 37954 ft | 526 kts | 17° |
| 2026-05-07 20:07 | 39.34370 | 4.85863 | 37957 ft | 526 kts | 17° |
| 2026-05-07 20:08 | 39.41187 | 4.89333 | 37952 ft | 527 kts | 17° |
| 2026-05-07 20:08 | 39.48005 | 4.92808 | 37960 ft | 527 kts | 17° |
| 2026-05-07 20:09 | 39.54834 | 4.96296 | 37962 ft | 527 kts | 17° |
| 2026-05-07 20:10 | 39.65160 | 5.00701 | 37963 ft | 519 kts | 7° |
| 2026-05-07 20:10 | 39.72230 | 5.02598 | 37972 ft | 518 kts | 6° |
| 2026-05-07 20:11 | 39.79297 | 5.04456 | 37970 ft | 519 kts | 6° |
| 2026-05-07 20:11 | 39.86360 | 5.06379 | 37976 ft | 519 kts | 7° |
| 2026-05-07 20:12 | 39.93371 | 5.08327 | 37974 ft | 519 kts | 7° |
| 2026-05-07 20:12 | 40.00430 | 5.10299 | 37972 ft | 518 kts | 7° |
| 2026-05-07 20:13 | 40.07484 | 5.12269 | 37973 ft | 518 kts | 7° |
| 2026-05-07 20:13 | 40.14536 | 5.14240 | 37974 ft | 518 kts | 7° |
| 2026-05-07 20:14 | 40.20393 | 5.15880 | 37969 ft | 518 kts | 7° |
| 2026-05-07 20:14 | 40.27400 | 5.17846 | 37977 ft | 518 kts | 7° |
| 2026-05-07 20:15 | 40.35642 | 5.20164 | 37974 ft | 518 kts | 7° |
| 2026-05-07 20:15 | 40.42694 | 5.22152 | 37976 ft | 518 kts | 8° |
| 2026-05-07 20:16 | 40.49691 | 5.24129 | 37980 ft | 518 kts | 8° |
| 2026-05-07 20:16 | 40.56733 | 5.26122 | 37977 ft | 518 kts | 8° |
| 2026-05-07 20:17 | 40.63778 | 5.28121 | 37978 ft | 517 kts | 8° |
| 2026-05-07 20:17 | 40.70812 | 5.30121 | 37984 ft | 517 kts | 8° |
| 2026-05-07 20:18 | 40.77798 | 5.32112 | 37979 ft | 517 kts | 8° |
| 2026-05-07 20:18 | 40.84829 | 5.34120 | 37981 ft | 517 kts | 8° |
| 2026-05-07 20:19 | 40.91867 | 5.36135 | 37985 ft | 517 kts | 8° |
| 2026-05-07 20:19 | 40.98905 | 5.38128 | 37983 ft | 516 kts | 6° |
| 2026-05-07 20:20 | 41.05953 | 5.39035 | 37983 ft | 509 kts | 355° |
| 2026-05-07 20:20 | 41.13024 | 5.38938 | 37993 ft | 509 kts | 354° |
| 2026-05-07 20:21 | 41.20109 | 5.38803 | 37989 ft | 509 kts | 354° |
| 2026-05-07 20:21 | 41.27201 | 5.38733 | 37991 ft | 510 kts | 355° |
| 2026-05-07 20:22 | 41.34306 | 5.38694 | 37990 ft | 511 kts | 355° |
| 2026-05-07 20:22 | 41.41362 | 5.38656 | 37991 ft | 510 kts | 355° |
| 2026-05-07 20:23 | 41.48464 | 5.38614 | 37994 ft | 510 kts | 355° |
| 2026-05-07 20:23 | 41.55557 | 5.38570 | 37995 ft | 509 kts | 355° |
| 2026-05-07 20:24 | 41.62639 | 5.38526 | 37992 ft | 508 kts | 355° |
| 2026-05-07 20:24 | 41.69701 | 5.38430 | 37997 ft | 506 kts | 353° |
| 2026-05-07 20:25 | 41.76663 | 5.37965 | 37995 ft | 503 kts | 352° |
| 2026-05-07 20:25 | 41.83645 | 5.37406 | 37997 ft | 502 kts | 352° |
| 2026-05-07 20:26 | 41.90625 | 5.36896 | 37995 ft | 502 kts | 352° |
| 2026-05-07 20:26 | 41.97546 | 5.36427 | 37994 ft | 502 kts | 352° |
| 2026-05-07 20:27 | 42.04520 | 5.35961 | 37999 ft | 502 kts | 352° |
| 2026-05-07 20:27 | 42.11501 | 5.35490 | 37999 ft | 503 kts | 352° |
| 2026-05-07 20:28 | 42.18491 | 5.35016 | 37999 ft | 504 kts | 352° |
| 2026-05-07 20:28 | 42.25509 | 5.34538 | 37999 ft | 505 kts | 352° |
| 2026-05-07 20:29 | 42.32489 | 5.34062 | 38000 ft | 507 kts | 352° |
| 2026-05-07 20:29 | 42.38399 | 5.33658 | 37992 ft | 508 kts | 352° |
| 2026-05-07 20:30 | 42.45406 | 5.33178 | 37998 ft | 508 kts | 352° |
| 2026-05-07 20:30 | 42.52477 | 5.32693 | 38000 ft | 509 kts | 352° |
| 2026-05-07 20:31 | 42.60693 | 5.32129 | 37995 ft | 508 kts | 352° |
| 2026-05-07 20:31 | 42.66626 | 5.31964 | 37994 ft | 513 kts | 1° |
| 2026-05-07 20:32 | 42.74731 | 5.34553 | 37992 ft | 521 kts | 20° |
| 2026-05-07 20:32 | 42.81258 | 5.38880 | 37994 ft | 521 kts | 25° |
| 2026-05-07 20:33 | 42.87715 | 5.43355 | 37996 ft | 520 kts | 24° |
| 2026-05-07 20:33 | 42.94158 | 5.47686 | 37996 ft | 519 kts | 23° |
| 2026-05-07 20:34 | 43.00647 | 5.52002 | 37996 ft | 519 kts | 23° |
| 2026-05-07 20:34 | 43.06004 | 5.55688 | 37994 ft | 519 kts | 28° |
| 2026-05-07 20:35 | 43.11866 | 5.61486 | 37997 ft | 522 kts | 40° |
| 2026-05-07 20:35 | 43.17665 | 5.69876 | 37992 ft | 523 kts | 49° |
| 2026-05-07 20:36 | 43.21622 | 5.76153 | 37993 ft | 523 kts | 48° |
| 2026-05-07 20:36 | 43.27234 | 5.84919 | 37989 ft | 524 kts | 48° |
| 2026-05-07 20:37 | 43.31261 | 5.91141 | 37990 ft | 525 kts | 47° |
| 2026-05-07 20:37 | 43.36134 | 5.98615 | 37982 ft | 523 kts | 43° |
| 2026-05-07 20:37 | 43.40008 | 6.02458 | 37991 ft | 518 kts | 24° |
| 2026-05-07 20:38 | 43.43332 | 6.04286 | 38005 ft | 512 kts | 12° |
| 2026-05-07 20:38 | 43.46800 | 6.05121 | 37986 ft | 503 kts | 359° |
| 2026-05-07 20:38 | 43.49161 | 6.05307 | 38017 ft | 502 kts | 358° |
| 2026-05-07 20:39 | 43.56118 | 6.05777 | 38007 ft | 506 kts | 358° |
| 2026-05-07 20:39 | 43.63158 | 6.06406 | 37996 ft | 508 kts | 359° |
| 2026-05-07 20:40 | 43.71155 | 6.07214 | 38002 ft | 509 kts | 0° |
| 2026-05-07 20:40 | 43.77002 | 6.08495 | 37996 ft | 507 kts | 3° |
| 2026-05-07 20:40 | 43.80460 | 6.08485 | 37885 ft | 491 kts | 343° |
| 2026-05-07 20:41 | 43.83611 | 6.07017 | 37527 ft | 467 kts | 324° |
| 2026-05-07 20:41 | 43.86159 | 6.04387 | 36795 ft | 453 kts | 309° |
| 2026-05-07 20:41 | 43.88181 | 6.01072 | 35857 ft | 449 kts | 299° |
| 2026-05-07 20:41 | 43.89757 | 5.97364 | 34938 ft | 445 kts | 290° |
| 2026-05-07 20:42 | 43.90822 | 5.93372 | 34131 ft | 439 kts | 279° |
| 2026-05-07 20:42 | 43.91280 | 5.89305 | 32873 ft | 420 kts | 270° |
| 2026-05-07 20:42 | 43.91445 | 5.85391 | 32900 ft | 398 kts | 270° |
| 2026-05-07 20:42 | 43.91628 | 5.81597 | 32283 ft | 404 kts | 273° |
| 2026-05-07 20:43 | 43.92409 | 5.77786 | 31483 ft | 423 kts | 291° |
| 2026-05-07 20:43 | 43.94078 | 5.74345 | 30760 ft | 440 kts | 307° |
| 2026-05-07 20:43 | 43.96159 | 5.71207 | 30050 ft | 440 kts | 301° |
| 2026-05-07 20:43 | 43.97486 | 5.67461 | 29187 ft | 429 kts | 280° |
| 2026-05-07 20:44 | 43.97696 | 5.63412 | 28359 ft | 416 kts | 260° |
| 2026-05-07 20:44 | 43.96810 | 5.59651 | 27527 ft | 410 kts | 242° |
| 2026-05-07 20:44 | 43.95241 | 5.56344 | 26513 ft | 411 kts | 232° |
| 2026-05-07 20:44 | 43.93291 | 5.53463 | 25505 ft | 407 kts | 223° |
| 2026-05-07 20:45 | 43.91086 | 5.51215 | 24554 ft | 392 kts | 212° |
| 2026-05-07 20:45 | 43.88670 | 5.49624 | 23613 ft | 380 kts | 201° |
| 2026-05-07 20:45 | 43.86141 | 5.48752 | 22531 ft | 371 kts | 190° |
| 2026-05-07 20:45 | 43.83961 | 5.48584 | 21615 ft | 365 kts | 180° |
| 2026-05-07 20:46 | 43.81466 | 5.49042 | 20596 ft | 360 kts | 170° |
| 2026-05-07 20:46 | 43.79059 | 5.49858 | 19637 ft | 353 kts | 168° |
| 2026-05-07 20:46 | 43.76701 | 5.50701 | 18675 ft | 347 kts | 167° |
| 2026-05-07 20:46 | 43.74385 | 5.51514 | 17660 ft | 341 kts | 167° |
| 2026-05-07 20:47 | 43.72106 | 5.52296 | 16620 ft | 335 kts | 168° |
| 2026-05-07 20:47 | 43.69880 | 5.53049 | 15616 ft | 331 kts | 168° |
| 2026-05-07 20:47 | 43.67660 | 5.53791 | 14650 ft | 326 kts | 168° |
| 2026-05-07 20:47 | 43.65461 | 5.54486 | 13682 ft | 321 kts | 172° |
| 2026-05-07 20:48 | 43.63259 | 5.54420 | 12664 ft | 315 kts | 191° |
| 2026-05-07 20:48 | 43.61099 | 5.53724 | 11872 ft | 324 kts | 195° |
| 2026-05-07 20:48 | 43.58908 | 5.52998 | 11024 ft | 319 kts | 191° |
| 2026-05-07 20:48 | 43.56748 | 5.52571 | 10214 ft | 309 kts | 186° |
| 2026-05-07 20:49 | 43.54660 | 5.52259 | 9397 ft | 302 kts | 186° |
| 2026-05-07 20:49 | 43.52611 | 5.51917 | 8600 ft | 293 kts | 191° |
| 2026-05-07 20:49 | 43.50659 | 5.51245 | 7863 ft | 285 kts | 195° |
| 2026-05-07 20:49 | 43.48787 | 5.50461 | 7150 ft | 278 kts | 196° |
| 2026-05-07 20:50 | 43.46965 | 5.49666 | 6454 ft | 272 kts | 196° |
| 2026-05-07 20:50 | 43.45177 | 5.48866 | 5754 ft | 267 kts | 197° |
| 2026-05-07 20:50 | 43.43433 | 5.48079 | 5072 ft | 261 kts | 197° |
| 2026-05-07 20:50 | 43.41740 | 5.47321 | 4540 ft | 251 kts | 196° |
| 2026-05-07 20:51 | 43.40061 | 5.46864 | 4025 ft | 240 kts | 186° |
| 2026-05-07 20:51 | 43.38484 | 5.46576 | 4088 ft | 232 kts | 191° |
| 2026-05-07 20:51 | 43.36945 | 5.45816 | 4185 ft | 240 kts | 205° |
| 2026-05-07 20:51 | 43.35461 | 5.44758 | 4149 ft | 238 kts | 207° |
| 2026-05-07 20:52 | 43.34062 | 5.43697 | 4188 ft | 222 kts | 210° |
| 2026-05-07 20:52 | 43.32779 | 5.42627 | 4144 ft | 208 kts | 210° |
| 2026-05-07 20:52 | 43.31617 | 5.41635 | 4136 ft | 182 kts | 214° |
| 2026-05-07 20:52 | 43.30887 | 5.40335 | 4138 ft | 173 kts | 256° |
| 2026-05-07 20:53 | 43.31009 | 5.38688 | 4175 ft | 180 kts | 298° |
| 2026-05-07 20:53 | 43.31762 | 5.37339 | 4183 ft | 179 kts | 311° |
| 2026-05-07 20:53 | 43.32588 | 5.35990 | 3920 ft | 188 kts | 310° |
| 2026-05-07 20:53 | 43.33500 | 5.34762 | 3563 ft | 183 kts | 318° |
| 2026-05-07 20:54 | 43.34494 | 5.33697 | 3243 ft | 179 kts | 327° |
| 2026-05-07 20:54 | 43.35539 | 5.32797 | 2933 ft | 174 kts | 325° |
| 2026-05-07 20:54 | 43.36465 | 5.31709 | 2409 ft | 178 kts | 317° |
| 2026-05-07 20:54 | 43.37336 | 5.30546 | 2096 ft | 168 kts | 314° |
| 2026-05-07 20:55 | 43.38090 | 5.29454 | 1988 ft | 151 kts | 314° |
| 2026-05-07 20:55 | 43.38844 | 5.28374 | 1732 ft | 160 kts | 314° |
| 2026-05-07 20:55 | 43.39589 | 5.27313 | 1436 ft | 153 kts | 314° |
| 2026-05-07 20:55 | 43.40309 | 5.26287 | 1152 ft | 144 kts | 314° |
| 2026-05-07 20:56 | 43.40434 | 5.26109 | 1103 ft | 142 kts | 314° |
| 2026-05-07 20:56 | 43.41102 | 5.25151 | 848 ft | 139 kts | 314° |
| 2026-05-07 20:56 | 43.41772 | 5.24197 | 627 ft | 139 kts | 314° |
| 2026-05-07 20:56 | 43.42444 | 5.23246 | 337 ft | 139 kts | 314° |
| 2026-05-07 20:57 | 43.43104 | 5.22295 | 118 ft | 137 kts | 314° |
| 2026-05-07 20:57 | 43.43737 | 5.21410 | 41 ft | 118 kts | 314° |
| 2026-05-07 20:57 | 43.44103 | 5.20889 | 29 ft | 56 kts | 314° |
| 2026-05-07 20:57 | 43.44244 | 5.20767 | 26 ft | 7 kts | 7° |
| 2026-05-07 20:58 | 43.44289 | 5.20803 | 26 ft | 8 kts | 46° |
| 2026-05-07 20:58 | 43.44301 | 5.20879 | 26 ft | 9 kts | 98° |
| 2026-05-07 20:58 | 43.44275 | 5.20958 | 28 ft | 9 kts | 120° |
| 2026-05-07 20:58 | 43.44239 | 5.21028 | 30 ft | 9 kts | 130° |
| 2026-05-07 20:59 | 43.44197 | 5.21093 | 27 ft | 9 kts | 132° |
| 2026-05-07 20:59 | 43.44154 | 5.21157 | 29 ft | 9 kts | 133° |
| 2026-05-07 20:59 | 43.44106 | 5.21225 | 31 ft | 10 kts | 135° |
| 2026-05-07 20:59 | 43.44058 | 5.21292 | 38 ft | 8 kts | 135° |
| 2026-05-07 21:00 | 43.44020 | 5.21344 | 32 ft | 7 kts | 135° |
| 2026-05-07 21:00 | 43.44086 | 5.22007 | 41 ft | 0 kts | 40° |